首页
METAR-TAF:

METAR-TAF

机场 :

圣莫里茨, 瑞士

纬度: 46-32-03N, 经度: 9-53-03E, 海拔: 1707米

当前天气观测

该预报发布于29分钟前的21:20 UTC
风速3节,风向多变
温度 11°C
湿度 82%
气压 1031 hPa
能见度10公里或以上
1500米以下无云,无积雨云

METAR: LSZS 212120Z AUTO VRB03KT CAVOK 11/08 Q1031

时间: 23:49 (21:49 UTC)

预报

该预报发布于7小时和24分钟前的14:25 UTC
预报有效从21日的 15点(UTC)到 21日的 24点(UTC)
风速5节,风向西北
能见度10公里或以上
散云层高于5000英尺
成为
从 21日的 18点(UTC)到 21日的 20点(UTC)
风速3节,风向多变
能见度10公里或以上
1500米以下无云,无积雨云

TAF: LSZS 211425Z 2115/2124 32005KT 9999 SCT050 TX21/2115Z BECMG 2118/2120 VRB03KT CAVOK

超过4000个机场的气象观测和天气预报(METAR&TAF报告)。

可查询的气象台以黄色和红色小点在地图上表示。

将鼠标移到小点上方,可查看气象台名称。

然后点击查看天气观测和预报。

如需切换地图:点击带黑十字的绿色按钮放大地图;点击带横线的绿色按钮缩小地图;或者点击绿色箭头查看邻近地区的地图。


METAR-TAF: